createdAt,value
2019-06-07T00:00:00.614Z,32.40
2019-06-07T00:02:28.888Z,32.60
2019-06-07T00:04:57.186Z,32.40
2019-06-07T00:07:25.532Z,32.20
2019-06-07T00:09:53.776Z,32.40
2019-06-07T00:12:22.064Z,32.30
2019-06-07T00:14:50.328Z,32.30
2019-06-07T00:17:20.227Z,32.40
2019-06-07T00:19:48.617Z,32.10
2019-06-07T00:22:30.108Z,32.20
2019-06-07T00:24:46.991Z,32.20
2019-06-07T00:27:15.766Z,32.00
2019-06-07T00:29:45.262Z,32.10
2019-06-07T00:32:14.985Z,31.90
2019-06-07T00:34:43.548Z,32.10
2019-06-07T00:37:12.728Z,32.20
2019-06-07T00:39:41.802Z,31.90
2019-06-07T00:42:10.840Z,32.00
2019-06-07T00:44:39.705Z,32.20
2019-06-07T00:47:08.026Z,31.80
2019-06-07T00:49:41.095Z,32.00
2019-06-07T00:52:06.380Z,31.80
2019-06-07T00:54:34.627Z,31.70
2019-06-07T00:57:02.873Z,31.80
2019-06-07T00:59:31.151Z,31.90
2019-06-07T01:01:59.411Z,31.80
2019-06-07T01:04:27.771Z,31.90
2019-06-07T01:06:56.116Z,31.90
2019-06-07T01:09:25.540Z,31.80
2019-06-07T01:11:54.162Z,32.10
2019-06-07T01:14:25.343Z,32.00
2019-06-07T01:16:59.488Z,31.90
2019-06-07T01:19:26.052Z,31.90
2019-06-07T01:21:52.523Z,31.50
2019-06-07T01:24:24.429Z,31.50
2019-06-07T01:26:53.866Z,31.60
2019-06-07T01:29:24.221Z,31.80
2019-06-07T01:31:52.202Z,32.10
2019-06-07T01:34:21.126Z,31.90
2019-06-07T01:36:50.581Z,31.90
2019-06-07T01:39:18.865Z,32.00
2019-06-07T01:41:47.187Z,31.90
2019-06-07T01:44:17.660Z,31.80
2019-06-07T01:46:45.444Z,32.00
2019-06-07T01:49:13.705Z,32.00
2019-06-07T01:51:42.030Z,32.30
2019-06-07T01:54:49.520Z,32.00
2019-06-07T01:56:40.338Z,31.90
2019-06-07T01:59:08.630Z,32.00
2019-06-07T02:01:36.948Z,32.00
2019-06-07T02:04:05.590Z,31.60
2019-06-07T02:06:33.987Z,32.00
2019-06-07T02:09:02.506Z,32.00
2019-06-07T02:11:31.939Z,31.90
2019-06-07T02:14:00.531Z,31.90
2019-06-07T02:16:32.012Z,32.10
2019-06-07T02:19:02.010Z,32.10
2019-06-07T02:21:33.427Z,31.80
2019-06-07T02:23:58.824Z,31.70
2019-06-07T02:26:30.020Z,31.90
2019-06-07T02:28:57.184Z,31.90
2019-06-07T02:31:31.010Z,31.90
2019-06-07T02:33:56.711Z,31.80
2019-06-07T02:36:29.697Z,31.90
2019-06-07T02:38:54.961Z,31.80
2019-06-07T02:41:30.066Z,31.70
2019-06-07T02:43:53.213Z,31.80
2019-06-07T02:46:34.643Z,31.80
2019-06-07T02:48:56.540Z,31.80
2019-06-07T02:51:32.116Z,31.40
2019-06-07T02:53:54.873Z,31.70
2019-06-07T02:56:53.950Z,31.60
2019-06-07T02:58:53.164Z,31.80
2019-06-07T03:01:21.435Z,31.60
2019-06-07T03:03:49.776Z,31.20
2019-06-07T03:06:18.059Z,31.20
2019-06-07T03:08:46.911Z,31.40
2019-06-07T03:11:15.804Z,31.40
2019-06-07T03:13:46.316Z,31.20
2019-06-07T03:16:20.533Z,31.10
2019-06-07T03:18:53.272Z,31.40
2019-06-07T03:21:23.153Z,31.40
2019-06-07T03:23:57.220Z,31.30
2019-06-07T03:26:30.452Z,31.10
2019-06-07T03:28:58.394Z,31.40
2019-06-07T03:31:28.431Z,29.70
2019-06-07T03:33:56.907Z,30.00
2019-06-07T03:36:26.007Z,30.40
2019-06-07T03:38:54.806Z,30.00
2019-06-07T03:41:23.352Z,29.60
2019-06-07T03:43:51.638Z,29.60
2019-06-07T03:46:19.901Z,29.80
2019-06-07T03:48:48.205Z,29.90
2019-06-07T03:51:24.770Z,29.70
2019-06-07T03:53:46.537Z,29.70
2019-06-07T03:56:15.703Z,29.90
2019-06-07T03:58:49.842Z,29.70
2019-06-07T04:01:14.111Z,29.60
2019-06-07T04:03:50.976Z,29.60
2019-06-07T04:06:12.355Z,29.10
2019-06-07T04:08:42.158Z,29.70
2019-06-07T04:11:10.763Z,29.60
2019-06-07T04:13:42.633Z,29.30
2019-06-07T04:16:09.079Z,29.70
2019-06-07T04:18:40.860Z,29.70
2019-06-07T04:21:07.462Z,30.00
2019-06-07T04:23:44.704Z,30.00
2019-06-07T04:26:06.978Z,30.50
2019-06-07T04:29:27.336Z,30.70
2019-06-07T04:31:05.294Z,30.70
2019-06-07T04:33:34.980Z,31.00
2019-06-07T04:36:03.648Z,31.20
2019-06-07T04:38:36.201Z,31.70
2019-06-07T04:41:02.376Z,31.20
2019-06-07T04:43:31.521Z,31.60
2019-06-07T04:46:00.553Z,31.80
2019-06-07T04:48:30.929Z,32.00
2019-06-07T04:50:59.689Z,31.50
2019-06-07T04:53:30.076Z,31.90
2019-06-07T04:55:57.938Z,31.90
2019-06-07T04:58:26.681Z,31.80
2019-06-07T05:01:02.646Z,31.50
2019-06-07T05:03:24.962Z,32.10
2019-06-07T05:05:53.265Z,32.20
2019-06-07T05:08:27.920Z,32.50
2019-06-07T05:10:51.587Z,33.70
2019-06-07T05:13:19.845Z,33.70
2019-06-07T05:15:48.145Z,33.60
2019-06-07T05:18:16.412Z,33.20
2019-06-07T05:20:44.947Z,33.30
2019-06-07T05:23:59.468Z,33.50
2019-06-07T05:25:44.748Z,33.60
2019-06-07T05:28:13.273Z,33.40
2019-06-07T05:33:11.548Z,33.70
2019-06-07T05:35:42.887Z,33.40
2019-06-07T05:38:09.840Z,33.70
2019-06-07T05:40:42.969Z,34.30
2019-06-07T05:43:21.567Z,34.00
2019-06-07T05:45:49.831Z,34.70
2019-06-07T05:48:18.121Z,34.50
2019-06-07T05:50:55.969Z,33.80
2019-06-07T05:53:16.423Z,34.00
2019-06-07T05:55:47.452Z,34.00
2019-06-07T05:58:14.720Z,34.80
2019-06-07T06:00:44.597Z,34.80
2019-06-07T06:03:13.064Z,36.00
2019-06-07T06:05:48.042Z,35.20
2019-06-07T06:08:11.440Z,35.20
2019-06-07T06:10:42.543Z,34.80
2019-06-07T06:13:09.700Z,34.70
2019-06-07T06:15:46.324Z,34.60
2019-06-07T06:18:07.998Z,34.50
2019-06-07T06:21:02.212Z,34.40
2019-06-07T06:23:06.254Z,34.50
2019-06-07T06:25:34.798Z,35.00
2019-06-07T06:28:11.578Z,35.00
2019-06-07T06:30:33.412Z,35.10
2019-06-07T06:33:01.795Z,35.30
2019-06-07T06:35:30.054Z,35.30
2019-06-07T06:37:59.520Z,35.90
2019-06-07T06:40:27.983Z,35.80
2019-06-07T06:42:56.272Z,35.40
2019-06-07T06:45:24.508Z,34.90
2019-06-07T06:47:52.793Z,34.40
2019-06-07T06:50:21.066Z,34.40
2019-06-07T06:52:54.240Z,34.20
2019-06-07T06:55:19.339Z,34.20
2019-06-07T06:57:48.480Z,33.90
2019-06-07T07:00:17.640Z,34.70
2019-06-07T07:03:32.533Z,34.80
2019-06-07T07:05:15.898Z,34.60
2019-06-07T07:07:45.432Z,34.50
2019-06-07T07:10:15.772Z,34.80
2019-06-07T07:12:45.432Z,34.40
2019-06-07T07:15:17.608Z,34.30
2019-06-07T07:17:56.590Z,34.00
2019-06-07T07:20:15.938Z,34.00
2019-06-07T07:22:46.377Z,33.80
2019-06-07T07:25:14.444Z,33.70
2019-06-07T07:27:44.464Z,34.00
2019-06-07T07:32:45.530Z,34.20
2019-06-07T07:35:12.769Z,34.00
2019-06-07T07:37:41.057Z,33.80
2019-06-07T07:40:55.550Z,33.50
2019-06-07T07:42:39.329Z,33.60
2019-06-07T07:45:07.578Z,33.50
2019-06-07T07:47:35.891Z,33.60
2019-06-07T07:50:06.495Z,33.80
2019-06-07T07:52:34.808Z,33.40
2019-06-07T07:55:04.010Z,33.30
2019-06-07T07:57:32.380Z,33.50
2019-06-07T08:00:36.217Z,33.20
2019-06-07T08:02:30.828Z,33.20
2019-06-07T08:05:28.742Z,33.20
2019-06-07T08:07:53.098Z,33.30
2019-06-07T08:10:19.082Z,33.20
2019-06-07T08:13:09.032Z,33.10
2019-06-07T08:15:18.462Z,33.10
2019-06-07T08:17:47.899Z,32.60
2019-06-07T08:20:16.837Z,33.20
2019-06-07T08:22:52.543Z,33.10
2019-06-07T08:25:20.973Z,33.10
2019-06-07T08:27:49.524Z,33.00
2019-06-07T08:32:51.600Z,33.30
2019-06-07T08:36:03.090Z,33.40
2019-06-07T08:38:21.596Z,33.10
2019-06-07T08:40:18.885Z,33.10
2019-06-07T08:43:03.127Z,33.20
2019-06-07T08:45:17.265Z,33.10
2019-06-07T08:47:45.575Z,33.30
2019-06-07T08:50:13.849Z,33.20
2019-06-07T08:52:42.114Z,33.30
2019-06-07T08:55:10.388Z,33.20
2019-06-07T08:57:38.674Z,33.30
2019-06-07T09:00:42.266Z,33.30
2019-06-07T09:02:37.208Z,33.00
2019-06-07T09:05:12.147Z,33.00
2019-06-07T09:07:36.506Z,32.90
2019-06-07T09:10:12.813Z,32.90
2019-06-07T09:12:36.762Z,33.00
2019-06-07T09:15:20.450Z,32.80
2019-06-07T09:18:29.521Z,32.70
2019-06-07T09:20:33.057Z,33.40
2019-06-07T09:22:39.062Z,33.60
2019-06-07T09:25:26.838Z,33.50
2019-06-07T09:28:02.982Z,33.90
2019-06-07T09:30:40.364Z,33.50
2019-06-07T09:33:09.704Z,33.70
2019-06-07T09:35:38.802Z,33.60
2019-06-07T09:38:18.141Z,33.50
2019-06-07T09:40:37.044Z,33.70
2019-06-07T09:43:55.342Z,33.70
2019-06-07T09:45:35.754Z,33.70
2019-06-07T09:48:11.514Z,34.00
2019-06-07T09:50:34.182Z,34.60
2019-06-07T09:53:10.450Z,34.40
2019-06-07T09:55:32.508Z,34.50
2019-06-07T09:58:07.987Z,36.40
2019-06-07T10:00:40.699Z,36.40
2019-06-07T10:03:08.841Z,36.50
2019-06-07T10:05:31.733Z,36.30
2019-06-07T10:08:14.419Z,36.30
2019-06-07T10:12:59.534Z,36.40
2019-06-07T10:15:27.958Z,36.40
2019-06-07T10:17:56.219Z,36.30
2019-06-07T10:20:24.550Z,36.40
2019-06-07T10:22:52.851Z,36.40
2019-06-07T10:25:21.119Z,36.40
2019-06-07T10:27:49.367Z,36.40
2019-06-07T10:30:17.631Z,37.10
2019-06-07T10:32:45.901Z,36.30
2019-06-07T10:35:16.471Z,36.30
2019-06-07T10:37:44.245Z,36.40
2019-06-07T10:40:12.493Z,36.40
2019-06-07T10:42:40.763Z,36.40
2019-06-07T10:45:10.320Z,36.20
2019-06-07T10:47:39.009Z,36.30
2019-06-07T10:50:08.111Z,36.40
2019-06-07T10:52:36.507Z,36.70
2019-06-07T10:55:08.618Z,37.40
2019-06-07T10:57:37.110Z,37.30
2019-06-07T11:00:09.406Z,37.00
2019-06-07T11:02:38.333Z,36.90
2019-06-07T11:05:08.185Z,36.90
2019-06-07T11:07:36.958Z,37.10
2019-06-07T11:10:14.994Z,36.80
2019-06-07T11:12:38.278Z,37.40
2019-06-07T11:15:08.893Z,36.80
2019-06-07T11:17:37.486Z,36.40
2019-06-07T11:20:08.200Z,36.80
2019-06-07T11:22:36.971Z,36.50
2019-06-07T11:25:06.907Z,36.40
2019-06-07T11:27:35.747Z,37.00
2019-06-07T11:30:06.259Z,36.50
2019-06-07T11:32:34.572Z,36.40
2019-06-07T11:35:04.590Z,36.30
2019-06-07T11:37:32.881Z,36.30
2019-06-07T11:40:01.196Z,36.40
2019-06-07T11:42:29.473Z,36.30
2019-06-07T11:44:57.768Z,36.30
2019-06-07T11:47:26.053Z,36.30
2019-06-07T11:49:54.377Z,36.40
2019-06-07T11:52:22.613Z,36.50
2019-06-07T11:54:50.944Z,36.40
2019-06-07T11:57:19.270Z,36.40
2019-06-07T11:59:47.506Z,36.40
2019-06-07T12:02:15.776Z,36.40
2019-06-07T12:04:44.068Z,36.40
2019-06-07T12:07:13.836Z,36.30
2019-06-07T12:09:55.484Z,36.30
2019-06-07T12:12:12.650Z,36.40
2019-06-07T12:14:41.107Z,36.30
2019-06-07T12:17:09.358Z,36.40
2019-06-07T12:19:37.646Z,36.30
2019-06-07T12:22:05.899Z,36.40
2019-06-07T12:24:34.182Z,36.30
2019-06-07T12:27:02.543Z,36.40
2019-06-07T12:29:33.863Z,36.40
2019-06-07T12:32:00.880Z,36.30
2019-06-07T12:34:29.182Z,36.40
2019-06-07T12:36:57.561Z,36.40
2019-06-07T12:39:25.976Z,36.40
2019-06-07T12:41:54.310Z,36.40
2019-06-07T12:44:22.829Z,36.40
2019-06-07T12:46:51.479Z,36.40
2019-06-07T12:49:21.101Z,36.40
2019-06-07T12:51:49.542Z,36.50
2019-06-07T12:54:17.784Z,35.30
2019-06-07T12:56:46.066Z,34.70
2019-06-07T12:59:14.424Z,34.60
2019-06-07T13:01:44.299Z,34.50
2019-06-07T13:04:12.597Z,34.70
2019-06-07T13:06:40.859Z,34.80
2019-06-07T13:09:09.137Z,34.70
2019-06-07T13:11:37.376Z,34.60
2019-06-07T13:14:05.709Z,34.60
2019-06-07T13:16:34.001Z,34.90
2019-06-07T13:19:02.276Z,35.20
2019-06-07T13:21:30.565Z,35.00
2019-06-07T13:23:58.935Z,34.50
2019-06-07T13:26:28.568Z,35.20
2019-06-07T13:28:57.039Z,34.50
2019-06-07T13:31:25.368Z,34.20
2019-06-07T13:33:53.700Z,34.70
2019-06-07T13:36:22.384Z,34.00
2019-06-07T13:38:50.724Z,34.00
2019-06-07T13:41:32.644Z,33.80
2019-06-07T13:43:51.470Z,33.80
2019-06-07T13:46:19.087Z,33.70
2019-06-07T13:48:47.347Z,33.50
2019-06-07T13:51:15.581Z,33.40
2019-06-07T13:53:43.889Z,33.30
2019-06-07T13:56:12.121Z,33.10
2019-06-07T13:58:40.413Z,32.90
2019-06-07T14:01:08.695Z,32.80
2019-06-07T14:03:37.007Z,32.90
2019-06-07T14:06:05.457Z,32.80
2019-06-07T14:08:33.753Z,32.50
2019-06-07T14:11:02.046Z,32.30
2019-06-07T14:13:30.481Z,32.20
2019-06-07T14:15:58.841Z,32.00
2019-06-07T14:18:28.631Z,32.00
2019-06-07T14:20:58.989Z,31.50
2019-06-07T14:23:45.188Z,31.50
2019-06-07T14:25:57.680Z,31.60
2019-06-07T14:28:28.589Z,31.60
2019-06-07T14:30:56.010Z,31.60
2019-06-07T14:33:26.893Z,31.50
2019-06-07T14:35:54.358Z,31.50
2019-06-07T14:38:23.104Z,31.40
2019-06-07T14:40:51.580Z,31.20
2019-06-07T14:43:19.896Z,30.80
2019-06-07T14:45:48.204Z,30.90
2019-06-07T14:48:16.492Z,31.40
2019-06-07T14:50:44.813Z,30.80
2019-06-07T14:53:13.181Z,30.80
2019-06-07T14:55:41.461Z,30.80
2019-06-07T14:58:09.743Z,30.80
2019-06-07T15:00:42.739Z,30.80
2019-06-07T15:03:11.187Z,30.80
2019-06-07T15:05:40.399Z,30.80
2019-06-07T15:08:08.934Z,30.80
2019-06-07T15:10:37.215Z,30.90
2019-06-07T15:13:05.543Z,30.90
2019-06-07T15:15:34.594Z,30.80
2019-06-07T15:18:02.923Z,30.90
2019-06-07T15:20:32.184Z,30.80
2019-06-07T15:23:00.608Z,30.90
2019-06-07T15:25:29.195Z,30.80
2019-06-07T15:27:57.728Z,30.80
2019-06-07T15:30:27.348Z,30.90
2019-06-07T15:32:59.434Z,30.80
2019-06-07T15:35:25.778Z,30.90
2019-06-07T15:37:54.051Z,30.90
2019-06-07T15:40:22.338Z,31.00
2019-06-07T15:42:53.124Z,30.90
2019-06-07T15:45:20.640Z,31.00
2019-06-07T15:47:48.996Z,31.00
2019-06-07T15:50:17.258Z,31.00
2019-06-07T15:52:45.537Z,30.90
2019-06-07T15:55:13.784Z,30.90
2019-06-07T15:57:42.493Z,31.00
2019-06-07T16:00:11.901Z,31.00
2019-06-07T16:02:41.647Z,31.00
2019-06-07T16:05:10.280Z,30.90
2019-06-07T16:07:38.582Z,31.00
2019-06-07T16:10:08.227Z,30.90
2019-06-07T16:12:36.733Z,31.00
2019-06-07T16:15:07.481Z,31.00
2019-06-07T16:17:37.275Z,31.00
2019-06-07T16:20:06.814Z,31.10
2019-06-07T16:22:35.784Z,31.10
2019-06-07T16:25:05.675Z,31.10
2019-06-07T16:27:34.406Z,31.20
2019-06-07T16:30:08.981Z,31.10
2019-06-07T16:32:34.945Z,30.40
2019-06-07T16:35:05.197Z,30.50
2019-06-07T16:37:33.455Z,30.20
2019-06-07T16:40:01.790Z,30.20
2019-06-07T16:42:30.085Z,30.20
2019-06-07T16:44:58.386Z,30.30
2019-06-07T16:47:26.713Z,30.50
2019-06-07T16:49:55.036Z,31.00
2019-06-07T16:52:23.327Z,31.10
2019-06-07T16:54:51.616Z,31.20
2019-06-07T16:57:19.917Z,31.10
2019-06-07T16:59:50.505Z,31.10
2019-06-07T17:02:18.214Z,31.10
2019-06-07T17:04:47.770Z,31.20
2019-06-07T17:07:16.234Z,31.10
2019-06-07T17:09:45.741Z,31.00
2019-06-07T17:12:14.527Z,31.00
2019-06-07T17:14:42.777Z,31.00
2019-06-07T17:17:11.106Z,31.50
2019-06-07T17:19:39.358Z,31.20
2019-06-07T17:22:07.648Z,32.00
2019-06-07T17:24:35.916Z,31.70
2019-06-07T17:27:04.267Z,32.50
2019-06-07T17:29:32.527Z,32.10
2019-06-07T17:32:00.768Z,32.20
2019-06-07T17:34:29.079Z,32.40
2019-06-07T17:36:57.351Z,32.60
2019-06-07T17:39:25.679Z,32.70
2019-06-07T17:42:01.643Z,33.00
2019-06-07T17:44:23.947Z,33.00
2019-06-07T17:46:52.237Z,33.00
2019-06-07T17:49:20.596Z,32.70
2019-06-07T17:51:50.016Z,32.80
2019-06-07T17:54:18.389Z,32.60
2019-06-07T17:56:46.662Z,33.00
2019-06-07T17:59:14.913Z,33.00
2019-06-07T18:02:05.881Z,32.70
2019-06-07T18:04:13.222Z,32.90
2019-06-07T18:06:41.453Z,32.90
2019-06-07T18:09:09.927Z,32.20
2019-06-07T18:11:38.187Z,30.90
2019-06-07T18:14:10.977Z,31.00
2019-06-07T18:16:36.626Z,30.90
2019-06-07T18:19:04.949Z,30.80
2019-06-07T18:21:33.295Z,30.90
2019-06-07T18:24:01.562Z,30.90
2019-06-07T18:26:29.807Z,30.90
2019-06-07T18:28:59.345Z,30.90
2019-06-07T18:31:27.815Z,31.10
2019-06-07T18:33:56.061Z,31.50
2019-06-07T18:36:24.414Z,30.80
2019-06-07T18:38:53.113Z,30.80
2019-06-07T18:41:21.823Z,30.80
2019-06-07T18:43:51.133Z,31.40
2019-06-07T18:46:19.788Z,31.40
2019-06-07T18:48:48.365Z,31.80
2019-06-07T18:51:16.737Z,32.60
2019-06-07T18:53:44.998Z,32.00
2019-06-07T18:56:13.319Z,31.80
2019-06-07T18:58:41.722Z,31.30
2019-06-07T19:01:10.005Z,31.10
2019-06-07T19:03:38.240Z,31.70
2019-06-07T19:06:06.751Z,31.40
2019-06-07T19:08:35.278Z,31.90
2019-06-07T19:11:03.547Z,31.70
2019-06-07T19:13:31.794Z,32.30
2019-06-07T19:16:00.111Z,32.40
2019-06-07T19:18:28.437Z,32.10
2019-06-07T19:20:56.709Z,32.40
2019-06-07T19:23:24.977Z,32.40
2019-06-07T19:25:54.297Z,31.90
2019-06-07T19:28:22.674Z,32.30
2019-06-07T19:30:50.996Z,32.40
2019-06-07T19:33:19.250Z,33.20
2019-06-07T19:35:48.164Z,32.70
2019-06-07T19:38:17.206Z,32.40
2019-06-07T19:40:45.741Z,32.40
2019-06-07T19:43:13.987Z,32.20
2019-06-07T19:45:42.262Z,32.50
2019-06-07T19:48:10.651Z,31.90
2019-06-07T19:50:38.996Z,31.90
2019-06-07T19:53:07.272Z,32.40
2019-06-07T19:55:35.621Z,34.30
2019-06-07T19:58:04.058Z,35.30
2019-06-07T20:00:32.326Z,36.10
2019-06-07T20:03:02.086Z,36.70
2019-06-07T20:05:33.740Z,37.50
2019-06-07T20:08:00.667Z,39.00
2019-06-07T20:10:29.081Z,39.90
2019-06-07T20:12:58.565Z,40.50
2019-06-07T20:15:29.449Z,41.00
2019-06-07T20:17:57.209Z,39.90
2019-06-07T20:20:25.602Z,36.80
2019-06-07T20:22:53.903Z,35.50
2019-06-07T20:25:22.176Z,35.00
2019-06-07T20:27:50.422Z,32.10
2019-06-07T20:30:18.769Z,30.00
2019-06-07T20:32:47.068Z,30.00
2019-06-07T20:35:15.337Z,29.80
2019-06-07T20:37:43.633Z,29.80
2019-06-07T20:40:23.585Z,29.70
2019-06-07T20:42:41.992Z,28.50
2019-06-07T20:45:10.239Z,29.60
2019-06-07T20:47:38.525Z,28.80
2019-06-07T20:50:08.655Z,29.50
2019-06-07T20:52:37.307Z,29.50
2019-06-07T20:55:07.362Z,28.10
2019-06-07T20:57:35.658Z,28.30
2019-06-07T21:00:16.002Z,28.60
2019-06-07T21:02:38.973Z,28.10
2019-06-07T21:05:07.617Z,26.80
2019-06-07T21:07:36.082Z,26.80
2019-06-07T21:10:07.998Z,27.10
2019-06-07T21:12:36.458Z,26.70
2019-06-07T21:15:11.815Z,26.70
2019-06-07T21:17:37.854Z,26.50
2019-06-07T21:20:09.862Z,25.90
2019-06-07T21:22:37.277Z,26.10
2019-06-07T21:25:09.483Z,25.60
2019-06-07T21:27:38.105Z,25.80
2019-06-07T21:30:09.534Z,26.40
2019-06-07T21:32:37.970Z,26.40
2019-06-07T21:35:07.999Z,25.90
2019-06-07T21:37:36.552Z,25.90
2019-06-07T21:40:06.045Z,26.10
2019-06-07T21:42:34.393Z,26.40
2019-06-07T21:45:03.543Z,27.00
2019-06-07T21:47:32.664Z,26.50
2019-06-07T21:50:02.455Z,26.80
2019-06-07T21:52:30.962Z,26.90
2019-06-07T21:54:59.216Z,27.40
2019-06-07T21:57:27.495Z,27.30
2019-06-07T21:59:55.737Z,27.10
2019-06-07T22:02:24.113Z,27.60
2019-06-07T22:04:52.370Z,27.50
2019-06-07T22:07:20.822Z,27.30
2019-06-07T22:09:49.064Z,27.40
2019-06-07T22:12:17.340Z,27.40
2019-06-07T22:14:45.680Z,27.90
2019-06-07T22:17:14.500Z,27.50
2019-06-07T22:19:42.992Z,28.10
2019-06-07T22:22:11.328Z,27.70
2019-06-07T22:24:39.616Z,28.00
2019-06-07T22:27:09.085Z,28.00
2019-06-07T22:29:37.664Z,28.20
2019-06-07T22:32:06.733Z,28.00
2019-06-07T22:34:35.212Z,27.40
2019-06-07T22:37:03.489Z,28.30
2019-06-07T22:39:31.770Z,28.50
2019-06-07T22:42:00.032Z,28.50
2019-06-07T22:44:28.326Z,28.60
2019-06-07T22:46:57.394Z,27.70
2019-06-07T22:49:25.769Z,28.30
2019-06-07T22:52:07.914Z,28.50
2019-06-07T22:54:24.087Z,28.40
2019-06-07T22:56:57.112Z,28.10
2019-06-07T22:59:25.395Z,28.60
2019-06-07T23:01:53.657Z,28.50
2019-06-07T23:04:21.928Z,28.50
2019-06-07T23:06:50.216Z,28.50
2019-06-07T23:09:19.790Z,28.50
2019-06-07T23:11:48.172Z,28.50
2019-06-07T23:14:17.504Z,28.50
2019-06-07T23:16:55.558Z,28.70
2019-06-07T23:19:16.243Z,28.10
2019-06-07T23:21:44.688Z,28.70
2019-06-07T23:24:14.061Z,28.70
2019-06-07T23:26:42.503Z,28.70
2019-06-07T23:29:10.755Z,27.80
2019-06-07T23:31:39.051Z,27.90
2019-06-07T23:34:07.310Z,27.80
2019-06-07T23:36:35.614Z,28.20
2019-06-07T23:39:05.501Z,28.50
2019-06-07T23:41:33.789Z,28.50
2019-06-07T23:44:02.061Z,28.60
2019-06-07T23:46:30.337Z,28.60
2019-06-07T23:48:58.661Z,27.90
2019-06-07T23:51:26.892Z,28.40
2019-06-07T23:53:55.191Z,28.70
2019-06-07T23:56:23.541Z,28.70
2019-06-07T23:58:51.816Z,28.80
